Pagrindinis puslapis
METAR-TAF:

METAR-TAF

Oro uostai :

Vasa, Suomija

platuma: 63-03N, ilguma: 021-46E, Aukštis: 4 m

Dabartinis oras

Ataskaita buvo paskelbta 12 minutes, ne 10:20 UTC
Vėjas 5 kt iš Pietryčių
Temperatūra -5°C
Drėgmė 93%
Slėgis 1006 hPa
Matomumas 10 km arba daugiau
Apsiniaukę ne aukštis 2900 ft

METAR: EFVA 071020Z AUTO 14005KT 9999 OVC029 M05/M06 Q1006

Laikas: 12:32 (10:32 UTC)

Prognozė

Ataskaita buvo paskelbta 2 valandos ir 2 minutes, ne 08:30 UTC
Prognozė galioja nuo 07 metu 09 UTC su 08 metu 09 UTC
Vėjas 3 kt iš Pietų/Pietvakarių
Matomumas 10 km arba daugiau
Su prošvaistėmis ne aukštis 1700 ft
Laikinai
nuo 07 metu 15 UTC su 07 metu 24 UTC
Matomumas: 0800 m
Su prošvaistėmis ne aukštis 100 ft
įšaldymas rūko
Tapsmas
nuo 08 metu 01 UTC su 08 metu 03 UTC
Matomumas: 2500 m
ne aukštis 1400 ft
sniegas

TAF: EFVA 070830Z 0709/0809 20003KT 9999 BKN017 TEMPO 0715/0724 0800 FZFG BKN001 BECMG 0801/0803 2500 SN VV014

Orai ataskaitas ir orų prognozės (METAR, TAF).

turimą stotys yra geltonos ir raudonos taškus žemėlapyje.

Perkelti pele per norėdami pamatyti stoties vardą.

Tada spustelėkite, norėdami matyti oro stebėjimo ir prognozės.

Norėdami pakeisti žemėlapį: spustelėkite ant žalios mygtukų su juodo kryžiaus žemyn,; žalią mygtuką su brūkšneliu, jei norite nutolinti; arba žalių rodyklių gretimoms žemėlapius.


METAR-TAF: